Time;durP1;ratioP1;P1;durP2;ratioP2;P2;SDS_P1;SDS_P2;PMS_P1;PMS_P2;Temp;Humidity;BMP_temperature;BMP_pressure;BME280_temperature;BME280_humidity;BME280_pressure;Samples;Min_cycle;Max_cycle;Signal;HPM_P1;HPM_P2
2021/10/21 00:00:45;;;;;;;7.35;2.40;;;17.50;92.90;;;;;;4210443;28;20059;-64
2021/10/21 00:03:08;;;;;;;7.30;2.08;;;17.50;93.00;;;;;;4219893;27;20093;-64
2021/10/21 00:05:30;;;;;;;8.38;2.60;;;17.50;93.00;;;;;;4227478;27;20070;-64
2021/10/21 00:07:52;;;;;;;5.00;1.90;;;17.40;93.00;;;;;;4226930;27;20055;-61
2021/10/21 00:10:14;;;;;;;8.75;2.50;;;17.50;93.00;;;;;;4227023;27;20128;-64
2021/10/21 00:12:37;;;;;;;7.38;2.42;;;17.40;93.00;;;;;;4221024;27;20113;-65
2021/10/21 00:15:01;;;;;;;7.00;1.85;;;17.40;93.00;;;;;;4210035;28;20418;-65
2021/10/21 00:17:23;;;;;;;6.55;2.10;;;17.40;93.00;;;;;;4210281;28;20410;-65
2021/10/21 00:19:45;;;;;;;7.10;2.50;;;17.40;93.10;;;;;;4210159;28;20054;-65
2021/10/21 00:22:07;;;;;;;7.68;2.50;;;17.40;93.10;;;;;;4213589;28;20100;-65
2021/10/21 00:24:29;;;;;;;6.93;2.30;;;17.40;93.20;;;;;;4227045;27;20805;-65
2021/10/21 00:26:51;;;;;;;6.78;1.90;;;17.40;93.10;;;;;;4226991;27;20130;-66
2021/10/21 00:29:13;;;;;;;9.20;1.88;;;17.40;93.20;;;;;;4227058;27;20045;-65
2021/10/21 00:31:37;;;;;;;5.32;2.20;;;17.40;93.10;;;;;;4227017;27;20140;-66
2021/10/21 00:33:59;;;;;;;15.88;3.05;;;17.40;93.10;;;;;;4192934;28;20129;-65
2021/10/21 00:36:21;;;;;;;5.15;2.15;;;17.40;93.60;;;;;;4192978;28;20102;-65
2021/10/21 00:38:44;;;;;;;6.05;2.30;;;17.40;93.70;;;;;;4193163;28;20133;-64
2021/10/21 00:41:06;;;;;;;5.68;2.33;;;17.40;93.30;;;;;;4193008;28;20118;-64
2021/10/21 00:43:35;;;;;;;7.47;2.63;;;17.40;93.30;;;;;;4193025;28;20051;-65
2021/10/21 00:45:57;;;;;;;5.90;2.78;;;17.40;93.20;;;;;;4200824;28;20043;-65
2021/10/21 00:48:21;;;;;;;7.30;2.90;;;17.40;93.40;;;;;;4209661;28;20052;-64
2021/10/21 00:50:43;;;;;;;8.65;2.90;;;17.40;93.40;;;;;;4209504;28;20509;-64
2021/10/21 00:53:06;;;;;;;7.22;3.25;;;17.40;93.50;;;;;;4209579;28;20050;-63
2021/10/21 00:55:28;;;;;;;5.57;3.33;;;17.40;93.50;;;;;;4209649;28;20158;-63
2021/10/21 00:57:50;;;;;;;6.40;3.72;;;17.40;93.90;;;;;;4209225;28;20079;-63
2021/10/21 01:00:13;;;;;;;9.68;4.07;;;17.40;93.60;;;;;;4209668;28;20051;-64
2021/10/21 01:02:35;;;;;;;9.00;3.85;;;17.40;93.60;;;;;;4214269;27;20094;-62
2021/10/21 01:04:59;;;;;;;6.30;3.80;;;17.30;93.60;;;;;;4209305;28;20051;-62
2021/10/21 01:07:21;;;;;;;5.93;3.58;;;17.40;93.60;;;;;;4209569;28;20048;-62
2021/10/21 01:09:44;;;;;;;6.50;3.70;;;17.40;93.60;;;;;;4192764;28;20041;-62
2021/10/21 01:12:06;;;;;;;8.98;4.45;;;17.30;93.60;;;;;;4209055;28;20133;-62
2021/10/21 01:14:28;;;;;;;7.20;4.57;;;17.30;93.70;;;;;;4225924;27;20058;-62
2021/10/21 01:16:50;;;;;;;5.03;3.70;;;17.40;93.70;;;;;;4225984;27;20062;-62
2021/10/21 01:19:17;;;;;;;6.60;4.10;;;17.40;93.70;;;;;;4226619;27;20461;-62
2021/10/21 01:21:41;;;;;;;5.85;3.80;;;17.40;93.60;;;;;;4220125;27;20054;-62
2021/10/21 01:24:03;;;;;;;5.13;4.35;;;17.40;93.70;;;;;;4209477;28;20040;-62
2021/10/21 01:26:25;;;;;;;5.93;4.03;;;17.30;93.80;;;;;;4222936;27;20061;-62
2021/10/21 01:28:47;;;;;;;8.18;4.53;;;17.30;93.80;;;;;;4225947;27;20452;-60
2021/10/21 01:31:10;;;;;;;7.22;4.22;;;17.30;93.80;;;;;;4224796;27;20485;-63
2021/10/21 01:33:32;;;;;;;5.68;4.30;;;17.30;93.90;;;;;;4208728;28;20056;-63
2021/10/21 01:35:54;;;;;;;6.28;4.60;;;17.30;93.90;;;;;;4208998;28;20137;-63
2021/10/21 01:38:18;;;;;;;7.32;4.72;;;17.30;93.90;;;;;;4208795;28;20486;-62
2021/10/21 01:40:40;;;;;;;6.15;4.00;;;17.30;93.90;;;;;;4209041;28;20452;-62
2021/10/21 01:43:03;;;;;;;5.38;3.13;;;17.40;93.90;;;;;;4209038;28;20048;-63
2021/10/21 01:45:29;;;;;;;4.15;2.50;;;17.30;93.90;;;;;;4209585;27;20046;-62
2021/10/21 01:47:52;;;;;;;3.80;2.42;;;17.30;93.90;;;;;;4225502;27;20105;-61
2021/10/21 01:50:14;;;;;;;4.32;3.00;;;17.30;93.80;;;;;;4223964;27;20046;-62
2021/10/21 01:52:37;;;;;;;5.18;2.60;;;17.30;93.80;;;;;;4211153;27;20052;-63
2021/10/21 01:55:00;;;;;;;4.60;2.25;;;17.30;93.90;;;;;;4208846;28;20052;-62
2021/10/21 01:57:23;;;;;;;3.70;2.08;;;17.30;93.90;;;;;;4209598;27;20101;-63
2021/10/21 01:59:45;;;;;;;3.80;2.17;;;17.30;94.00;;;;;;4225726;27;20040;-62
2021/10/21 02:02:07;;;;;;;5.43;2.45;;;17.30;94.00;;;;;;4223751;27;20104;-63
2021/10/21 02:04:29;;;;;;;3.53;1.90;;;17.30;93.80;;;;;;4221697;27;20066;-62
2021/10/21 02:06:51;;;;;;;4.70;1.80;;;17.30;93.90;;;;;;4208796;28;20046;-61
2021/10/21 02:09:13;;;;;;;5.13;2.00;;;17.30;93.90;;;;;;4208435;28;20056;-63
2021/10/21 02:11:36;;;;;;;5.32;1.55;;;17.30;93.90;;;;;;4208263;28;20058;-61
2021/10/21 02:13:59;;;;;;;4.07;1.98;;;17.30;93.90;;;;;;4208280;28;20387;-63
2021/10/21 02:16:21;;;;;;;5.53;1.70;;;17.20;93.20;;;;;;4208295;28;20591;-62
2021/10/21 02:18:43;;;;;;;3.90;1.73;;;17.30;93.30;;;;;;4191702;28;20044;-62
2021/10/21 02:21:05;;;;;;;4.93;1.95;;;17.20;93.40;;;;;;4199534;27;20127;-62
2021/10/21 02:23:27;;;;;;;4.63;1.75;;;17.20;93.70;;;;;;4224677;27;20169;-62
2021/10/21 02:25:50;;;;;;;2.85;1.50;;;17.20;93.80;;;;;;4208420;28;20067;-62
2021/10/21 02:28:13;;;;;;;2.35;1.58;;;17.20;93.90;;;;;;4208404;28;20054;-62
2021/10/21 02:30:35;;;;;;;3.33;1.55;;;17.20;93.40;;;;;;4217938;27;20123;-61
2021/10/21 02:32:57;;;;;;;3.42;1.95;;;17.20;93.70;;;;;;4225189;27;20052;-61
2021/10/21 02:35:19;;;;;;;5.53;2.33;;;17.20;93.70;;;;;;4225091;27;20105;-61
2021/10/21 02:37:41;;;;;;;3.03;2.22;;;17.20;93.80;;;;;;4225015;27;20579;-61
2021/10/21 02:40:06;;;;;;;4.63;2.13;;;17.20;94.00;;;;;;4219365;27;20097;-62
2021/10/21 02:42:28;;;;;;;4.90;1.85;;;17.20;94.00;;;;;;4208113;28;20089;-62
2021/10/21 02:44:51;;;;;;;4.40;1.85;;;17.20;94.00;;;;;;4217972;27;20051;-62
2021/10/21 02:47:15;;;;;;;2.83;2.50;;;17.20;93.20;;;;;;4225136;27;20044;-62
2021/10/21 02:49:37;;;;;;;3.40;2.00;;;17.20;93.60;;;;;;4224947;27;20043;-61
2021/10/21 02:52:00;;;;;;;4.35;2.15;;;17.20;93.60;;;;;;4223834;27;20076;-62
2021/10/21 02:54:22;;;;;;;2.28;1.52;;;17.20;93.80;;;;;;4191383;28;20052;-62
2021/10/21 02:56:44;;;;;;;4.38;1.48;;;17.20;93.80;;;;;;4191357;28;20807;-61
2021/10/21 02:59:06;;;;;;;1.02;0.70;;;17.20;94.10;;;;;;4191142;28;20153;-61
2021/10/21 03:01:30;;;;;;;2.17;0.82;;;17.20;93.80;;;;;;4208146;27;20047;-61
2021/10/21 03:03:52;;;;;;;1.77;0.65;;;17.20;93.60;;;;;;4224787;27;20047;-61
2021/10/21 03:06:14;;;;;;;0.73;0.50;;;17.20;93.40;;;;;;4224635;27;20051;-61
2021/10/21 03:08:36;;;;;;;1.00;0.90;;;17.20;92.90;;;;;;4224618;27;20139;-61
2021/10/21 03:10:58;;;;;;;1.35;0.50;;;17.20;93.10;;;;;;4209569;28;20048;-61
2021/10/21 03:13:20;;;;;;;1.60;0.80;;;17.10;92.80;;;;;;4207098;28;20064;-61
2021/10/21 03:15:42;;;;;;;2.10;0.73;;;17.20;92.90;;;;;;4206798;28;20052;-61
2021/10/21 03:18:06;;;;;;;0.93;0.52;;;17.20;93.20;;;;;;4206804;28;20059;-61
2021/10/21 03:20:28;;;;;;;0.70;0.70;;;17.10;93.00;;;;;;4218194;27;20075;-62
2021/10/21 03:22:50;;;;;;;1.15;0.60;;;17.10;93.20;;;;;;4223776;27;20128;-61
2021/10/21 03:25:13;;;;;;;3.75;0.75;;;17.10;93.40;;;;;;4211658;27;20073;-62
2021/10/21 03:27:36;;;;;;;3.38;0.52;;;17.20;93.60;;;;;;4210735;28;20161;-62
2021/10/21 03:29:58;;;;;;;1.80;0.50;;;17.10;93.20;;;;;;4210541;28;20073;-63
2021/10/21 03:32:20;;;;;;;0.95;0.60;;;17.10;93.50;;;;;;4211158;28;20498;-62
2021/10/21 03:34:43;;;;;;;3.58;0.80;;;17.10;93.50;;;;;;4210666;28;20054;-62
2021/10/21 03:37:05;;;;;;;1.60;0.55;;;17.10;92.90;;;;;;4210896;28;20055;-61
2021/10/21 03:39:27;;;;;;;2.25;0.68;;;17.10;93.20;;;;;;4193640;28;20062;-62
2021/10/21 03:41:50;;;;;;;2.50;1.08;;;17.10;93.00;;;;;;4194260;28;20050;-62
2021/10/21 03:44:12;;;;;;;1.30;0.60;;;17.10;92.60;;;;;;4193972;28;20068;-62
2021/10/21 03:46:34;;;;;;;1.75;0.68;;;17.10;92.40;;;;;;4192608;28;20049;-62
2021/10/21 03:48:56;;;;;;;2.65;0.55;;;17.10;92.90;;;;;;4209539;28;20052;-61
2021/10/21 03:51:20;;;;;;;1.15;0.70;;;17.10;92.50;;;;;;4210858;28;20435;-61
2021/10/21 03:53:42;;;;;;;1.73;0.50;;;17.10;92.10;;;;;;4210542;28;20051;-61
2021/10/21 03:56:07;;;;;;;2.35;1.10;;;17.10;91.70;;;;;;4210721;28;20052;-61
2021/10/21 03:58:29;;;;;;;2.67;0.70;;;17.10;91.60;;;;;;4210298;28;20113;-61
2021/10/21 04:00:52;;;;;;;1.02;0.70;;;17.00;92.20;;;;;;4227497;27;20096;-61
2021/10/21 04:03:15;;;;;;;3.38;0.75;;;17.00;91.70;;;;;;4227339;27;20151;-61
2021/10/21 04:05:40;;;;;;;2.33;0.85;;;17.00;91.90;;;;;;4227251;27;20065;-61
2021/10/21 04:08:04;;;;;;;2.20;0.60;;;17.00;91.70;;;;;;4219457;27;20044;-62
2021/10/21 04:10:27;;;;;;;3.13;0.90;;;17.00;91.70;;;;;;4210339;28;20520;-61
2021/10/21 04:12:49;;;;;;;1.65;0.63;;;17.00;92.60;;;;;;4210522;28;20417;-61
2021/10/21 04:15:11;;;;;;;1.35;0.80;;;17.00;92.50;;;;;;4210276;28;20109;-61
2021/10/21 04:17:33;;;;;;;2.47;0.60;;;17.00;92.10;;;;;;4216669;27;20054;-62
2021/10/21 04:19:55;;;;;;;4.82;0.85;;;17.00;92.40;;;;;;4227273;27;20544;-61
2021/10/21 04:22:17;;;;;;;2.03;0.75;;;17.00;92.20;;;;;;4227298;27;20118;-61
2021/10/21 04:24:40;;;;;;;1.05;0.60;;;16.90;92.00;;;;;;4224212;27;20059;-61
2021/10/21 04:27:06;;;;;;;1.02;0.60;;;17.00;92.40;;;;;;4223328;27;20058;-61
2021/10/21 04:29:27;;;;;;;1.23;0.50;;;16.90;92.40;;;;;;4210366;28;20093;-61
2021/10/21 04:31:50;;;;;;;0.98;0.60;;;16.90;92.20;;;;;;4220278;27;20611;-60
2021/10/21 04:34:13;;;;;;;1.10;0.52;;;16.90;92.70;;;;;;4226916;27;20808;-61
2021/10/21 04:36:36;;;;;;;1.17;0.55;;;17.00;92.20;;;;;;4225806;27;20682;-61
2021/10/21 04:39:01;;;;;;;0.45;0.32;;;17.00;92.40;;;;;;4222695;27;20058;-60
2021/10/21 04:41:25;;;;;;;1.55;0.35;;;17.00;92.30;;;;;;4209648;28;20052;-61
2021/10/21 04:43:47;;;;;;;0.40;0.40;;;16.90;92.30;;;;;;4209772;28;20486;-62
2021/10/21 04:46:09;;;;;;;1.13;0.75;;;16.90;92.70;;;;;;4210106;28;20113;-61
2021/10/21 04:48:31;;;;;;;0.75;0.55;;;16.90;92.50;;;;;;4209718;28;20046;-61
2021/10/21 04:50:53;;;;;;;0.60;0.45;;;16.90;93.20;;;;;;4193189;28;20534;-61
2021/10/21 04:53:15;;;;;;;1.00;0.65;;;16.90;92.70;;;;;;4218610;27;20171;-62
2021/10/21 04:55:38;;;;;;;1.33;0.50;;;16.90;92.60;;;;;;4193028;28;20049;-59
2021/10/21 04:58:02;;;;;;;0.90;0.30;;;16.90;92.10;;;;;;4192817;28;20047;-62
2021/10/21 05:00:24;;;;;;;0.80;0.30;;;16.90;92.40;;;;;;4193258;28;20045;-62
2021/10/21 05:02:47;;;;;;;1.30;0.40;;;16.90;92.50;;;;;;4176282;28;20063;-61
2021/10/21 05:05:10;;;;;;;1.40;0.63;;;16.90;92.80;;;;;;4176308;28;20055;-61
2021/10/21 05:07:32;;;;;;;1.58;0.68;;;16.90;92.40;;;;;;4176271;28;20501;-61
2021/10/21 05:09:54;;;;;;;1.23;0.70;;;16.90;92.50;;;;;;4192477;28;20474;-61
2021/10/21 05:12:16;;;;;;;1.33;0.50;;;16.90;93.20;;;;;;4207945;28;20732;-62
2021/10/21 05:14:39;;;;;;;1.17;0.70;;;16.80;92.40;;;;;;4209366;28;20056;-61
2021/10/21 05:17:01;;;;;;;0.52;0.52;;;16.90;92.80;;;;;;4209287;28;20059;-61
2021/10/21 05:19:24;;;;;;;0.63;0.40;;;16.80;92.50;;;;;;4209517;28;20721;-62
2021/10/21 05:21:48;;;;;;;1.40;0.75;;;16.80;92.40;;;;;;4209029;28;20044;-62
2021/10/21 05:24:10;;;;;;;2.83;0.70;;;16.90;92.00;;;;;;4209287;28;20109;-62
2021/10/21 05:26:32;;;;;;;1.15;0.57;;;16.80;91.80;;;;;;4209545;28;20048;-61
2021/10/21 05:28:54;;;;;;;1.17;0.68;;;16.80;91.60;;;;;;4209009;28;20040;-61
2021/10/21 05:31:18;;;;;;;1.23;0.52;;;16.80;91.70;;;;;;4208953;28;20537;-61
2021/10/21 05:33:40;;;;;;;1.08;0.40;;;16.80;91.50;;;;;;4208551;28;20059;-61
2021/10/21 05:36:07;;;;;;;0.57;0.17;;;16.80;91.80;;;;;;4225487;27;20484;-61
2021/10/21 05:38:29;;;;;;;0.50;0.50;;;16.80;91.90;;;;;;4225722;27;20561;-61
2021/10/21 05:40:52;;;;;;;2.85;0.88;;;16.80;91.20;;;;;;4220169;27;20055;-62
2021/10/21 05:43:14;;;;;;;2.97;0.70;;;16.70;89.50;;;;;;4209061;28;20052;-62
2021/10/21 05:45:36;;;;;;;4.07;0.88;;;16.70;90.10;;;;;;4212284;28;20086;-61
2021/10/21 05:47:59;;;;;;;3.65;1.08;;;16.70;89.50;;;;;;4225046;27;20122;-62
2021/10/21 05:50:21;;;;;;;4.78;1.45;;;16.70;91.10;;;;;;4221569;27;20051;-64
2021/10/21 05:52:44;;;;;;;4.75;1.10;;;16.70;90.60;;;;;;4208700;28;20553;-63
2021/10/21 05:55:10;;;;;;;3.55;1.13;;;16.70;91.40;;;;;;4225671;27;20058;-63
2021/10/21 05:57:32;;;;;;;3.88;1.05;;;16.70;90.30;;;;;;4225796;27;20490;-63
2021/10/21 05:59:54;;;;;;;3.03;1.00;;;16.60;91.50;;;;;;4225341;27;20150;-62
2021/10/21 06:02:16;;;;;;;3.40;1.10;;;16.70;92.20;;;;;;4210762;27;20047;-65
2021/10/21 06:04:39;;;;;;;5.40;0.85;;;16.70;92.00;;;;;;4211273;27;20048;-61
2021/10/21 06:07:01;;;;;;;3.38;0.98;;;16.70;92.70;;;;;;4208719;27;20051;-61
2021/10/21 06:09:23;;;;;;;3.88;0.98;;;16.70;92.80;;;;;;4208576;27;20055;-61
2021/10/21 06:11:45;;;;;;;4.13;1.00;;;16.70;92.90;;;;;;4191404;28;20539;-62
2021/10/21 06:14:08;;;;;;;3.35;0.93;;;16.70;93.00;;;;;;4207055;28;20078;-62
2021/10/21 06:16:31;;;;;;;3.38;0.80;;;16.70;92.80;;;;;;4208492;28;20051;-61
2021/10/21 06:18:53;;;;;;;2.35;0.60;;;16.70;92.30;;;;;;4209262;28;20055;-62
2021/10/21 06:21:21;;;;;;;4.43;1.10;;;16.70;92.10;;;;;;4215203;27;20047;-63
2021/10/21 06:23:43;;;;;;;3.92;0.80;;;16.70;92.30;;;;;;4224694;27;20074;-62
2021/10/21 06:26:05;;;;;;;3.13;0.98;;;16.70;92.10;;;;;;4219893;27;20059;-61
2021/10/21 06:28:28;;;;;;;3.65;0.80;;;16.70;92.40;;;;;;4224194;27;20039;-62
2021/10/21 06:30:50;;;;;;;2.70;0.85;;;16.60;92.20;;;;;;4209558;27;20101;-61
2021/10/21 06:33:12;;;;;;;4.35;0.90;;;16.60;92.60;;;;;;4208010;28;20414;-61
2021/10/21 06:35:35;;;;;;;4.95;1.70;;;16.60;92.80;;;;;;4191056;28;20075;-61
2021/10/21 06:37:58;;;;;;;5.97;1.20;;;16.60;92.30;;;;;;4191191;28;20490;-61
2021/10/21 06:40:20;;;;;;;2.67;0.70;;;16.60;92.40;;;;;;4196086;27;20040;-62
2021/10/21 06:42:43;;;;;;;6.03;1.48;;;16.60;92.60;;;;;;4221191;27;20047;-62
2021/10/21 06:45:06;;;;;;;2.75;0.73;;;16.60;92.80;;;;;;4208211;27;20486;-63
2021/10/21 06:47:29;;;;;;;2.60;0.75;;;16.60;92.80;;;;;;4207721;27;20150;-63
2021/10/21 06:49:51;;;;;;;3.15;0.95;;;16.60;92.90;;;;;;4206545;28;20051;-63
2021/10/21 06:52:13;;;;;;;5.47;1.25;;;16.60;92.80;;;;;;4207746;28;20047;-63
2021/10/21 06:54:37;;;;;;;3.70;1.38;;;16.60;93.20;;;;;;4209679;27;20047;-62
2021/10/21 06:56:59;;;;;;;1.33;0.60;;;16.60;92.90;;;;;;4208151;28;20059;-62
2021/10/21 06:59:21;;;;;;;4.53;0.73;;;16.60;92.90;;;;;;4207223;28;20133;-62
2021/10/21 07:01:44;;;;;;;2.67;0.90;;;16.60;92.40;;;;;;4194144;28;20110;-62
2021/10/21 07:04:06;;;;;;;2.47;0.80;;;16.60;92.90;;;;;;4191023;28;20490;-63
2021/10/21 07:06:28;;;;;;;3.38;1.48;;;16.60;93.00;;;;;;4191215;28;20127;-63
2021/10/21 07:08:50;;;;;;;4.82;1.25;;;16.60;92.90;;;;;;4187578;28;20069;-61
2021/10/21 07:11:14;;;;;;;5.28;1.20;;;16.60;93.00;;;;;;4190958;28;20131;-62
2021/10/21 07:13:36;;;;;;;4.03;1.30;;;16.60;93.10;;;;;;4190499;28;20457;-61
2021/10/21 07:15:59;;;;;;;1.70;1.02;;;16.60;93.10;;;;;;4190407;28;20049;-62
2021/10/21 07:18:22;;;;;;;5.80;1.23;;;16.60;93.10;;;;;;4190013;28;20479;-62
2021/10/21 07:20:44;;;;;;;3.33;1.02;;;16.60;92.90;;;;;;4204571;27;20063;-62
2021/10/21 07:23:06;;;;;;;3.45;0.77;;;16.60;93.50;;;;;;4207551;28;20053;-63
2021/10/21 07:25:29;;;;;;;3.25;1.20;;;16.70;93.60;;;;;;4207625;28;20055;-63
2021/10/21 07:27:52;;;;;;;4.40;0.90;;;16.90;93.40;;;;;;4207555;28;20048;-62
2021/10/21 07:30:15;;;;;;;4.13;1.10;;;17.00;93.10;;;;;;4207742;28;20093;-62
2021/10/21 07:32:38;;;;;;;6.35;1.40;;;17.10;92.90;;;;;;4222758;27;20466;-62
2021/10/21 07:35:00;;;;;;;4.10;1.33;;;17.20;92.70;;;;;;4220175;27;20051;-62
2021/10/21 07:37:23;;;;;;;2.72;1.33;;;17.20;92.70;;;;;;4218326;27;20047;-65
2021/10/21 07:39:47;;;;;;;4.55;1.23;;;17.30;92.50;;;;;;4193378;28;20075;-63
2021/10/21 07:42:10;;;;;;;4.45;1.13;;;17.40;92.30;;;;;;4222783;27;20452;-65
2021/10/21 07:44:34;;;;;;;4.30;1.23;;;17.50;92.00;;;;;;4190653;28;20422;-65
2021/10/21 07:46:56;;;;;;;2.75;1.20;;;17.60;91.90;;;;;;4190519;28;20049;-67
2021/10/21 07:49:17;;;;;;;4.07;1.17;;;17.70;91.70;;;;;;4189188;28;20044;-63
2021/10/21 07:51:40;;;;;;;1.83;0.80;;;17.70;91.60;;;;;;4190798;28;20053;-62
2021/10/21 07:54:02;;;;;;;3.00;0.80;;;17.70;91.50;;;;;;4212005;27;20425;-66
2021/10/21 07:56:24;;;;;;;4.25;0.98;;;17.70;91.50;;;;;;4224130;27;20097;-62
2021/10/21 07:58:47;;;;;;;3.08;0.77;;;17.70;91.50;;;;;;4224089;27;20206;-66
2021/10/21 08:01:10;;;;;;;2.13;0.80;;;17.70;91.40;;;;;;4224393;27;20500;-67
2021/10/21 08:03:34;;;;;;;2.83;1.10;;;17.70;91.40;;;;;;4215212;27;20044;-65
2021/10/21 08:05:57;;;;;;;3.22;1.20;;;17.70;91.30;;;;;;4207250;28;20043;-65
2021/10/21 08:08:18;;;;;;;3.78;1.38;;;17.80;91.40;;;;;;4207261;28;20123;-63
2021/10/21 08:10:40;;;;;;;2.53;1.00;;;17.80;91.10;;;;;;4208089;28;20064;-64
2021/10/21 08:13:03;;;;;;;5.40;1.30;;;17.80;91.00;;;;;;4209565;28;20052;-61
2021/10/21 08:15:25;;;;;;;3.25;0.98;;;17.80;91.10;;;;;;4209943;28;20043;-64
2021/10/21 08:17:50;;;;;;;2.88;0.90;;;17.80;91.40;;;;;;4200475;28;20055;-63
2021/10/21 08:20:13;;;;;;;3.58;0.90;;;17.80;91.10;;;;;;4210173;28;20069;-64
2021/10/21 08:22:35;;;;;;;3.13;0.93;;;17.80;91.00;;;;;;4209806;28;20060;-62
2021/10/21 08:24:57;;;;;;;3.95;1.05;;;17.70;90.90;;;;;;4209369;28;20052;-62
2021/10/21 08:27:20;;;;;;;3.40;0.70;;;17.70;90.80;;;;;;4209523;28;20044;-63
2021/10/21 08:29:42;;;;;;;1.73;1.10;;;17.70;90.90;;;;;;4208486;28;20056;-64
2021/10/21 08:32:07;;;;;;;2.90;0.95;;;17.70;91.00;;;;;;4210119;28;20040;-64
2021/10/21 08:34:30;;;;;;;2.05;0.65;;;17.60;91.30;;;;;;4209968;28;20055;-64
2021/10/21 08:36:52;;;;;;;1.90;0.95;;;17.60;91.40;;;;;;4210111;28;20048;-62
2021/10/21 08:39:14;;;;;;;3.17;0.60;;;17.60;91.60;;;;;;4209945;28;20126;-62
2021/10/21 08:41:38;;;;;;;4.50;0.82;;;17.60;91.30;;;;;;4210161;28;20139;-61
2021/10/21 08:44:01;;;;;;;1.98;0.95;;;17.60;91.20;;;;;;4209777;28;20098;-62
2021/10/21 08:46:24;;;;;;;3.08;0.77;;;17.60;91.10;;;;;;4210094;28;20513;-62
2021/10/21 08:48:49;;;;;;;2.20;1.02;;;17.60;91.40;;;;;;4209600;28;20060;-62
2021/10/21 08:51:13;;;;;;;3.60;1.10;;;17.60;91.30;;;;;;4209615;28;20533;-61
2021/10/21 08:53:35;;;;;;;3.72;0.85;;;17.60;91.20;;;;;;4224289;27;20055;-62
2021/10/21 08:55:57;;;;;;;4.20;0.95;;;17.60;91.20;;;;;;4209410;28;20050;-62
2021/10/21 08:58:20;;;;;;;5.70;1.58;;;17.60;91.20;;;;;;4209856;28;20105;-61
2021/10/21 09:00:42;;;;;;;3.55;0.98;;;17.70;91.30;;;;;;4209617;28;20064;-62
2021/10/21 09:03:06;;;;;;;1.88;0.95;;;17.70;91.30;;;;;;4193184;28;20044;-62
2021/10/21 09:05:32;;;;;;;3.30;1.05;;;17.70;91.20;;;;;;4193034;28;20135;-62
2021/10/21 09:08:07;;;;;;;2.58;0.98;;;17.70;91.00;;;;;;4192944;28;20063;-62
2021/10/21 09:10:30;;;;;;;2.83;0.73;;;17.80;91.00;;;;;;4192635;28;20052;-64
2021/10/21 09:12:53;;;;;;;1.60;0.90;;;17.80;91.10;;;;;;4192899;28;20059;-62
2021/10/21 09:15:17;;;;;;;5.40;1.42;;;17.80;91.00;;;;;;4191063;28;20127;-62
2021/10/21 09:17:40;;;;;;;3.97;1.00;;;17.80;91.00;;;;;;4192627;28;20075;-61
2021/10/21 09:20:24;;;;;;;4.10;1.60;;;17.80;91.00;;;;;;4226351;27;20073;-62
2021/10/21 09:22:52;;;;;;;2.95;1.15;;;17.80;90.80;;;;;;4225367;27;20044;-61
2021/10/21 09:25:23;;;;;;;2.95;1.20;;;17.80;90.90;;;;;;4226296;27;20035;-62
2021/10/21 09:27:45;;;;;;;2.63;1.20;;;17.80;91.00;;;;;;4225835;27;20052;-62
2021/10/21 09:30:08;;;;;;;2.60;1.20;;;17.80;91.20;;;;;;4226562;27;20501;-62
2021/10/21 09:32:31;;;;;;;4.43;1.25;;;17.70;91.20;;;;;;4215765;27;20497;-62
2021/10/21 09:34:57;;;;;;;2.00;0.98;;;17.70;91.20;;;;;;4207528;27;20139;-64
2021/10/21 09:37:21;;;;;;;3.30;1.08;;;17.70;91.40;;;;;;4204525;28;20064;-62
2021/10/21 09:39:46;;;;;;;2.42;0.80;;;17.80;91.20;;;;;;4197915;28;20133;-61
2021/10/21 09:42:10;;;;;;;2.08;1.05;;;17.90;91.10;;;;;;4208761;28;20558;-62
2021/10/21 09:44:33;;;;;;;3.50;1.02;;;18.00;91.00;;;;;;4208667;28;20047;-62
2021/10/21 09:46:57;;;;;;;4.05;1.38;;;18.00;90.90;;;;;;4208562;28;20044;-63
2021/10/21 09:49:25;;;;;;;2.42;1.08;;;18.00;90.80;;;;;;4208705;28;20055;-65
2021/10/21 09:51:48;;;;;;;4.47;1.17;;;18.00;90.70;;;;;;4208867;28;20052;-63
2021/10/21 09:54:10;;;;;;;5.15;1.33;;;18.00;90.80;;;;;;4208773;28;20513;-64
2021/10/21 09:56:53;;;;;;;2.35;1.15;;;18.00;90.90;;;;;;4192973;28;20546;-64
2021/10/21 09:59:23;;;;;;;4.32;1.15;;;18.00;90.40;;;;;;4208174;28;20054;-65
2021/10/21 10:01:48;;;;;;;4.22;1.20;;;17.90;90.80;;;;;;4208708;28;20667;-65
2021/10/21 10:04:14;;;;;;;3.13;1.00;;;17.90;91.00;;;;;;4208918;28;20505;-66
2021/10/21 10:06:37;;;;;;;4.78;1.80;;;17.90;90.90;;;;;;4208322;28;20059;-65
2021/10/21 10:09:00;;;;;;;4.97;1.55;;;17.80;91.10;;;;;;4191804;28;20458;-66
2021/10/21 10:11:22;;;;;;;6.45;1.85;;;17.80;91.00;;;;;;4190989;28;20043;-63
2021/10/21 10:13:46;;;;;;;6.35;2.35;;;17.80;90.00;;;;;;4203444;28;20052;-64
2021/10/21 10:16:09;;;;;;;4.43;1.42;;;17.80;90.30;;;;;;4208613;28;20127;-64
2021/10/21 10:18:33;;;;;;;10.30;2.95;;;17.70;90.80;;;;;;4207607;28;20052;-63
2021/10/21 10:21:06;;;;;;;4.55;2.10;;;17.70;90.50;;;;;;4191361;28;20052;-64
2021/10/21 10:23:28;;;;;;;5.03;1.77;;;17.60;90.50;;;;;;4191850;28;20567;-62
2021/10/21 10:25:53;;;;;;;5.65;3.08;;;17.60;90.70;;;;;;4191729;28;20049;-63
2021/10/21 10:28:16;;;;;;;2.75;1.95;;;17.60;91.00;;;;;;4202442;28;20044;-63
2021/10/21 10:30:50;;;;;;;5.63;2.35;;;17.50;91.00;;;;;;4208966;28;20059;-61
2021/10/21 10:33:14;;;;;;;6.25;2.45;;;17.50;90.70;;;;;;4210581;28;20066;-63
2021/10/21 10:35:39;;;;;;;4.03;1.90;;;17.50;90.70;;;;;;4216983;27;20542;-63
2021/10/21 10:38:02;;;;;;;5.55;2.05;;;17.50;90.40;;;;;;4207773;28;20515;-63
2021/10/21 10:40:43;;;;;;;5.75;1.80;;;17.40;90.80;;;;;;4207864;28;20044;-63
2021/10/21 10:43:06;;;;;;;5.13;2.95;;;17.40;90.40;;;;;;4208040;28;20548;-62
2021/10/21 10:45:49;;;;;;;8.15;3.00;;;17.40;91.00;;;;;;4207760;28;20044;-63
2021/10/21 10:48:12;;;;;;;3.67;1.35;;;17.30;90.90;;;;;;4189772;28;20044;-64
2021/10/21 10:50:56;;;;;;;3.17;1.58;;;17.30;91.00;;;;;;4197041;28;20044;-63
2021/10/21 10:53:38;;;;;;;8.15;5.38;;;17.30;90.50;;;;;;4205108;28;20048;-63
2021/10/21 10:56:01;;;;;;;7.43;3.47;;;17.20;90.90;;;;;;4207588;28;20048;-62
2021/10/21 10:58:26;;;;;;;4.57;2.10;;;17.20;91.30;;;;;;4207259;28;20410;-64
2021/10/21 11:00:50;;;;;;;6.68;2.55;;;17.20;91.00;;;;;;4207668;28;20048;-62
2021/10/21 11:03:14;;;;;;;7.72;4.25;;;17.20;91.20;;;;;;4207846;28;20044;-63
2021/10/21 11:05:55;;;;;;;5.78;2.30;;;17.10;91.20;;;;;;4207586;28;20113;-63
2021/10/21 11:08:18;;;;;;;9.45;3.67;;;17.20;91.10;;;;;;4207634;28;20040;-64
2021/10/21 11:10:42;;;;;;;5.85;3.08;;;17.10;91.70;;;;;;4207440;28;20102;-62
2021/10/21 11:13:19;;;;;;;8.02;2.78;;;17.10;91.50;;;;;;4200736;28;20637;-62
2021/10/21 11:15:42;;;;;;;4.53;3.30;;;17.10;90.80;;;;;;4205891;28;20517;-62
2021/10/21 11:18:05;;;;;;;8.23;2.97;;;17.10;90.90;;;;;;4207736;28;20044;-62
2021/10/21 11:20:41;;;;;;;8.82;4.05;;;17.10;90.70;;;;;;4207520;28;20434;-63
2021/10/21 11:23:05;;;;;;;6.40;1.75;;;17.10;90.60;;;;;;4191188;28;20056;-63
2021/10/21 11:25:29;;;;;;;5.68;2.88;;;17.10;91.50;;;;;;4199865;28;20048;-63
2021/10/21 11:27:53;;;;;;;9.27;4.80;;;17.10;91.90;;;;;;4206447;28;20052;-63
2021/10/21 11:30:19;;;;;;;7.15;3.65;;;17.20;91.50;;;;;;4208045;28;20062;-63
2021/10/21 11:32:59;;;;;;;3.17;1.35;;;17.30;91.30;;;;;;4207105;28;20056;-63
2021/10/21 11:35:24;;;;;;;6.63;2.83;;;17.30;90.30;;;;;;4207182;28;20494;-65
2021/10/21 11:37:48;;;;;;;3.30;1.90;;;17.30;90.80;;;;;;4207405;28;20047;-63
2021/10/21 11:40:16;;;;;;;4.32;2.08;;;17.40;90.50;;;;;;4208204;28;20505;-63
2021/10/21 11:42:39;;;;;;;4.03;2.92;;;17.40;90.30;;;;;;4207487;28;20066;-62
2021/10/21 11:45:10;;;;;;;4.30;1.75;;;17.40;90.20;;;;;;4207984;28;20036;-62
2021/10/21 11:47:33;;;;;;;4.53;2.53;;;17.30;88.70;;;;;;4210899;28;20056;-62
2021/10/21 11:49:57;;;;;;;3.25;1.90;;;17.30;89.90;;;;;;4210579;28;20043;-63
2021/10/21 11:52:19;;;;;;;2.80;2.25;;;17.30;90.00;;;;;;4210861;28;20048;-64
2021/10/21 11:54:42;;;;;;;4.88;3.25;;;17.30;91.00;;;;;;4210387;28;20075;-62
2021/10/21 11:57:06;;;;;;;5.28;2.80;;;17.30;90.60;;;;;;4210535;28;20482;-62
2021/10/21 11:59:36;;;;;;;6.63;2.85;;;17.30;89.70;;;;;;4210538;28;20102;-63
2021/10/21 12:02:08;;;;;;;6.60;3.38;;;17.30;89.90;;;;;;4210122;28;20055;-63
2021/10/21 12:04:30;;;;;;;6.45;2.33;;;17.30;90.20;;;;;;4210422;28;20095;-61
2021/10/21 12:06:52;;;;;;;2.55;2.08;;;17.30;90.30;;;;;;4210659;28;20039;-63
2021/10/21 12:09:14;;;;;;;4.07;2.38;;;17.30;90.40;;;;;;4210174;28;20858;-63
2021/10/21 12:11:41;;;;;;;8.18;2.08;;;17.20;90.40;;;;;;4210508;28;20052;-63
2021/10/21 12:14:05;;;;;;;8.07;4.72;;;17.20;90.40;;;;;;4210239;28;20101;-63
2021/10/21 12:16:27;;;;;;;4.20;2.58;;;17.30;91.00;;;;;;4210531;28;20490;-63
2021/10/21 12:18:52;;;;;;;5.05;2.60;;;17.30;90.90;;;;;;4210117;28;20050;-63
2021/10/21 12:21:14;;;;;;;4.55;3.22;;;17.40;90.80;;;;;;4210868;28;20383;-63
2021/10/21 12:23:46;;;;;;;4.40;1.85;;;17.50;90.60;;;;;;4210338;28;20138;-62
2021/10/21 12:26:09;;;;;;;2.92;1.55;;;17.60;90.40;;;;;;4209988;28;20054;-62
2021/10/21 12:28:40;;;;;;;6.40;2.75;;;17.60;90.40;;;;;;4210222;28;20127;-62